sensor_id;sensor_type;location;lat;lon;timestamp;P1;durP1;ratioP1;P2;durP2;ratioP2
78589;SDS011;67888;50.228;7.828;2023-08-12T00:02:38;9.88;;;4.45;;
78589;SDS011;67888;50.228;7.828;2023-08-12T00:07:39;13.18;;;5.90;;
78589;SDS011;67888;50.228;7.828;2023-08-12T00:12:43;13.63;;;4.77;;
78589;SDS011;67888;50.228;7.828;2023-08-12T00:17:43;9.77;;;5.00;;
78589;SDS011;67888;50.228;7.828;2023-08-12T00:22:44;11.37;;;5.20;;
78589;SDS011;67888;50.228;7.828;2023-08-12T00:27:44;11.30;;;5.30;;
78589;SDS011;67888;50.228;7.828;2023-08-12T00:32:45;12.23;;;5.75;;
78589;SDS011;67888;50.228;7.828;2023-08-12T00:37:45;14.27;;;5.27;;
78589;SDS011;67888;50.228;7.828;2023-08-12T00:42:45;10.40;;;5.17;;
78589;SDS011;67888;50.228;7.828;2023-08-12T00:47:47;14.63;;;5.73;;
78589;SDS011;67888;50.228;7.828;2023-08-12T00:52:47;11.30;;;5.30;;
78589;SDS011;67888;50.228;7.828;2023-08-12T00:57:48;12.20;;;5.40;;
78589;SDS011;67888;50.228;7.828;2023-08-12T01:02:49;11.75;;;4.82;;
78589;SDS011;67888;50.228;7.828;2023-08-12T01:07:50;10.07;;;5.17;;
78589;SDS011;67888;50.228;7.828;2023-08-12T01:12:54;12.00;;;4.80;;
78589;SDS011;67888;50.228;7.828;2023-08-12T01:17:59;10.68;;;5.45;;
78589;SDS011;67888;50.228;7.828;2023-08-12T01:23:13;13.40;;;5.00;;
78589;SDS011;67888;50.228;7.828;2023-08-12T01:28:13;15.00;;;5.80;;
78589;SDS011;67888;50.228;7.828;2023-08-12T01:38:17;11.27;;;6.10;;
78589;SDS011;67888;50.228;7.828;2023-08-12T01:43:19;11.32;;;5.75;;
78589;SDS011;67888;50.228;7.828;2023-08-12T01:48:19;11.10;;;5.50;;
78589;SDS011;67888;50.228;7.828;2023-08-12T01:53:23;11.77;;;6.10;;
78589;SDS011;67888;50.228;7.828;2023-08-12T01:58:23;16.00;;;6.33;;
78589;SDS011;67888;50.228;7.828;2023-08-12T02:03:23;10.70;;;5.93;;
78589;SDS011;67888;50.228;7.828;2023-08-12T02:08:24;14.57;;;6.83;;
78589;SDS011;67888;50.228;7.828;2023-08-12T02:13:24;15.67;;;6.70;;
78589;SDS011;67888;50.228;7.828;2023-08-12T02:18:25;13.27;;;6.80;;
78589;SDS011;67888;50.228;7.828;2023-08-12T02:23:25;12.63;;;6.60;;
78589;SDS011;67888;50.228;7.828;2023-08-12T02:28:25;15.47;;;7.60;;
78589;SDS011;67888;50.228;7.828;2023-08-12T02:33:26;15.40;;;9.48;;
78589;SDS011;67888;50.228;7.828;2023-08-12T02:38:26;17.40;;;9.97;;
78589;SDS011;67888;50.228;7.828;2023-08-12T02:43:26;16.43;;;11.47;;
78589;SDS011;67888;50.228;7.828;2023-08-12T02:48:27;17.40;;;11.70;;
78589;SDS011;67888;50.228;7.828;2023-08-12T02:53:27;20.90;;;11.60;;
78589;SDS011;67888;50.228;7.828;2023-08-12T02:58:27;19.87;;;12.10;;
78589;SDS011;67888;50.228;7.828;2023-08-12T03:03:28;19.93;;;13.23;;
78589;SDS011;67888;50.228;7.828;2023-08-12T03:08:28;22.80;;;13.63;;
78589;SDS011;67888;50.228;7.828;2023-08-12T03:13:28;20.73;;;13.20;;
78589;SDS011;67888;50.228;7.828;2023-08-12T03:18:29;19.48;;;13.45;;
78589;SDS011;67888;50.228;7.828;2023-08-12T03:23:29;17.53;;;13.07;;
78589;SDS011;67888;50.228;7.828;2023-08-12T03:28:30;20.17;;;13.65;;
78589;SDS011;67888;50.228;7.828;2023-08-12T03:33:30;18.77;;;12.63;;
78589;SDS011;67888;50.228;7.828;2023-08-12T03:38:32;19.15;;;13.30;;
78589;SDS011;67888;50.228;7.828;2023-08-12T03:43:32;19.03;;;13.30;;
78589;SDS011;67888;50.228;7.828;2023-08-12T03:48:33;19.63;;;13.27;;
78589;SDS011;67888;50.228;7.828;2023-08-12T03:53:34;20.47;;;13.73;;
78589;SDS011;67888;50.228;7.828;2023-08-12T03:58:34;20.55;;;13.05;;
78589;SDS011;67888;50.228;7.828;2023-08-12T04:03:35;19.30;;;13.13;;
78589;SDS011;67888;50.228;7.828;2023-08-12T04:08:35;18.03;;;13.77;;
78589;SDS011;67888;50.228;7.828;2023-08-12T04:13:35;18.07;;;12.83;;
78589;SDS011;67888;50.228;7.828;2023-08-12T04:18:36;20.47;;;13.27;;
78589;SDS011;67888;50.228;7.828;2023-08-12T04:23:36;19.30;;;13.10;;
78589;SDS011;67888;50.228;7.828;2023-08-12T04:28:37;21.33;;;14.17;;
78589;SDS011;67888;50.228;7.828;2023-08-12T04:33:37;19.97;;;13.60;;
78589;SDS011;67888;50.228;7.828;2023-08-12T04:38:37;20.53;;;14.40;;
78589;SDS011;67888;50.228;7.828;2023-08-12T04:43:44;18.83;;;13.57;;
78589;SDS011;67888;50.228;7.828;2023-08-12T04:48:44;17.67;;;12.53;;
78589;SDS011;67888;50.228;7.828;2023-08-12T04:53:46;19.35;;;13.13;;
78589;SDS011;67888;50.228;7.828;2023-08-12T04:58:47;19.23;;;14.03;;
78589;SDS011;67888;50.228;7.828;2023-08-12T05:03:47;18.77;;;13.00;;
78589;SDS011;67888;50.228;7.828;2023-08-12T05:08:47;21.33;;;13.77;;
78589;SDS011;67888;50.228;7.828;2023-08-12T05:13:48;20.80;;;14.53;;
78589;SDS011;67888;50.228;7.828;2023-08-12T05:18:48;20.23;;;14.17;;
78589;SDS011;67888;50.228;7.828;2023-08-12T05:23:48;20.27;;;14.57;;
78589;SDS011;67888;50.228;7.828;2023-08-12T05:28:49;19.85;;;14.30;;
78589;SDS011;67888;50.228;7.828;2023-08-12T05:33:50;19.73;;;13.27;;
78589;SDS011;67888;50.228;7.828;2023-08-12T05:38:52;21.13;;;14.48;;
78589;SDS011;67888;50.228;7.828;2023-08-12T05:43:52;21.33;;;14.47;;
78589;SDS011;67888;50.228;7.828;2023-08-12T05:48:53;24.00;;;14.80;;
78589;SDS011;67888;50.228;7.828;2023-08-12T05:53:54;25.00;;;14.63;;
78589;SDS011;67888;50.228;7.828;2023-08-12T05:58:54;21.25;;;14.15;;
78589;SDS011;67888;50.228;7.828;2023-08-12T06:03:54;23.37;;;15.27;;
78589;SDS011;67888;50.228;7.828;2023-08-12T06:08:55;22.45;;;13.85;;
78589;SDS011;67888;50.228;7.828;2023-08-12T06:13:55;22.37;;;13.43;;
78589;SDS011;67888;50.228;7.828;2023-08-12T06:18:56;20.83;;;13.20;;
78589;SDS011;67888;50.228;7.828;2023-08-12T06:23:56;20.93;;;13.37;;
78589;SDS011;67888;50.228;7.828;2023-08-12T06:28:56;21.67;;;13.60;;
78589;SDS011;67888;50.228;7.828;2023-08-12T06:33:57;19.70;;;12.70;;
78589;SDS011;67888;50.228;7.828;2023-08-12T06:38:57;20.00;;;12.60;;
78589;SDS011;67888;50.228;7.828;2023-08-12T06:43:58;20.17;;;13.10;;
78589;SDS011;67888;50.228;7.828;2023-08-12T06:48:58;20.42;;;13.05;;
78589;SDS011;67888;50.228;7.828;2023-08-12T06:53:59;18.60;;;11.80;;
78589;SDS011;67888;50.228;7.828;2023-08-12T06:59:00;18.97;;;11.47;;
78589;SDS011;67888;50.228;7.828;2023-08-12T07:04:00;18.37;;;12.10;;
78589;SDS011;67888;50.228;7.828;2023-08-12T07:09:00;15.97;;;9.50;;
78589;SDS011;67888;50.228;7.828;2023-08-12T07:14:01;14.53;;;8.87;;
78589;SDS011;67888;50.228;7.828;2023-08-12T07:19:01;13.93;;;8.13;;
78589;SDS011;67888;50.228;7.828;2023-08-12T07:24:02;12.52;;;7.65;;
78589;SDS011;67888;50.228;7.828;2023-08-12T07:29:02;13.17;;;7.17;;
78589;SDS011;67888;50.228;7.828;2023-08-12T07:34:02;14.37;;;8.00;;
78589;SDS011;67888;50.228;7.828;2023-08-12T07:39:03;11.10;;;7.27;;
78589;SDS011;67888;50.228;7.828;2023-08-12T07:44:04;13.47;;;5.87;;
78589;SDS011;67888;50.228;7.828;2023-08-12T07:49:04;10.93;;;6.30;;
78589;SDS011;67888;50.228;7.828;2023-08-12T07:54:05;9.60;;;5.90;;
78589;SDS011;67888;50.228;7.828;2023-08-12T07:59:05;9.77;;;6.03;;
78589;SDS011;67888;50.228;7.828;2023-08-12T08:04:05;9.93;;;6.43;;
78589;SDS011;67888;50.228;7.828;2023-08-12T08:09:06;9.03;;;4.93;;
78589;SDS011;67888;50.228;7.828;2023-08-12T08:14:06;8.20;;;5.20;;
78589;SDS011;67888;50.228;7.828;2023-08-12T08:19:08;9.63;;;5.43;;
78589;SDS011;67888;50.228;7.828;2023-08-12T08:24:09;8.77;;;5.22;;
78589;SDS011;67888;50.228;7.828;2023-08-12T08:29:11;8.40;;;5.20;;
78589;SDS011;67888;50.228;7.828;2023-08-12T08:34:11;9.25;;;4.55;;
78589;SDS011;67888;50.228;7.828;2023-08-12T08:39:12;7.80;;;3.90;;
78589;SDS011;67888;50.228;7.828;2023-08-12T08:44:12;6.87;;;3.40;;
78589;SDS011;67888;50.228;7.828;2023-08-12T08:49:15;7.43;;;3.13;;
78589;SDS011;67888;50.228;7.828;2023-08-12T08:54:16;8.02;;;3.60;;
78589;SDS011;67888;50.228;7.828;2023-08-12T08:59:17;9.67;;;3.17;;
78589;SDS011;67888;50.228;7.828;2023-08-12T09:04:18;6.25;;;3.35;;
78589;SDS011;67888;50.228;7.828;2023-08-12T09:09:20;6.80;;;3.23;;
78589;SDS011;67888;50.228;7.828;2023-08-12T09:14:22;6.75;;;3.08;;
78589;SDS011;67888;50.228;7.828;2023-08-12T09:19:22;6.97;;;2.90;;
78589;SDS011;67888;50.228;7.828;2023-08-12T09:24:26;7.05;;;2.88;;
78589;SDS011;67888;50.228;7.828;2023-08-12T09:29:33;8.17;;;3.17;;
78589;SDS011;67888;50.228;7.828;2023-08-12T09:34:33;7.82;;;3.53;;
78589;SDS011;67888;50.228;7.828;2023-08-12T09:39:34;6.30;;;3.00;;
78589;SDS011;67888;50.228;7.828;2023-08-12T09:44:35;6.70;;;3.20;;
78589;SDS011;67888;50.228;7.828;2023-08-12T09:49:36;8.50;;;3.28;;
78589;SDS011;67888;50.228;7.828;2023-08-12T09:54:37;6.65;;;3.50;;
78589;SDS011;67888;50.228;7.828;2023-08-12T09:59:38;7.07;;;3.00;;
78589;SDS011;67888;50.228;7.828;2023-08-12T10:04:41;6.22;;;3.20;;
78589;SDS011;67888;50.228;7.828;2023-08-12T10:09:43;7.05;;;3.42;;
78589;SDS011;67888;50.228;7.828;2023-08-12T10:14:44;9.03;;;4.03;;
78589;SDS011;67888;50.228;7.828;2023-08-12T10:19:47;7.30;;;3.42;;
78589;SDS011;67888;50.228;7.828;2023-08-12T10:24:49;8.60;;;3.80;;
78589;SDS011;67888;50.228;7.828;2023-08-12T10:29:49;7.37;;;3.60;;
78589;SDS011;67888;50.228;7.828;2023-08-12T10:34:56;6.25;;;3.00;;
78589;SDS011;67888;50.228;7.828;2023-08-12T10:39:57;7.37;;;3.20;;
78589;SDS011;67888;50.228;7.828;2023-08-12T10:44:59;7.10;;;3.22;;
78589;SDS011;67888;50.228;7.828;2023-08-12T10:50:06;8.30;;;3.20;;
78589;SDS011;67888;50.228;7.828;2023-08-12T10:55:16;8.30;;;3.20;;
78589;SDS011;67888;50.228;7.828;2023-08-12T11:00:27;8.07;;;3.45;;
78589;SDS011;67888;50.228;7.828;2023-08-12T11:05:35;6.87;;;2.67;;
78589;SDS011;67888;50.228;7.828;2023-08-12T11:10:36;6.10;;;3.10;;
78589;SDS011;67888;50.228;7.828;2023-08-12T11:15:43;8.63;;;2.90;;
78589;SDS011;67888;50.228;7.828;2023-08-12T11:20:47;9.68;;;3.30;;
78589;SDS011;67888;50.228;7.828;2023-08-12T11:25:47;6.70;;;3.10;;
78589;SDS011;67888;50.228;7.828;2023-08-12T11:30:50;6.97;;;3.10;;
78589;SDS011;67888;50.228;7.828;2023-08-12T11:35:51;6.47;;;2.70;;
78589;SDS011;67888;50.228;7.828;2023-08-12T11:40:51;7.57;;;3.20;;
78589;SDS011;67888;50.228;7.828;2023-08-12T11:45:54;8.65;;;3.40;;
78589;SDS011;67888;50.228;7.828;2023-08-12T11:50:55;7.53;;;3.10;;
78589;SDS011;67888;50.228;7.828;2023-08-12T11:55:55;8.00;;;3.50;;
78589;SDS011;67888;50.228;7.828;2023-08-12T12:00:56;6.93;;;3.30;;
78589;SDS011;67888;50.228;7.828;2023-08-12T12:05:56;6.27;;;2.63;;
78589;SDS011;67888;50.228;7.828;2023-08-12T12:10:57;8.43;;;2.93;;
78589;SDS011;67888;50.228;7.828;2023-08-12T12:16:03;6.00;;;2.80;;
78589;SDS011;67888;50.228;7.828;2023-08-12T12:21:10;5.85;;;2.80;;
78589;SDS011;67888;50.228;7.828;2023-08-12T12:26:12;6.50;;;2.90;;
78589;SDS011;67888;50.228;7.828;2023-08-12T12:31:13;6.38;;;2.92;;
78589;SDS011;67888;50.228;7.828;2023-08-12T12:36:13;5.83;;;2.70;;
78589;SDS011;67888;50.228;7.828;2023-08-12T12:41:14;7.87;;;2.90;;
78589;SDS011;67888;50.228;7.828;2023-08-12T12:46:15;7.17;;;3.23;;
78589;SDS011;67888;50.228;7.828;2023-08-12T12:51:16;6.63;;;3.00;;
78589;SDS011;67888;50.228;7.828;2023-08-12T12:56:16;6.23;;;2.97;;
78589;SDS011;67888;50.228;7.828;2023-08-12T13:01:17;6.43;;;3.20;;
78589;SDS011;67888;50.228;7.828;2023-08-12T13:06:18;6.93;;;2.93;;
78589;SDS011;67888;50.228;7.828;2023-08-12T13:11:18;7.43;;;2.60;;
78589;SDS011;67888;50.228;7.828;2023-08-12T13:16:18;6.63;;;3.00;;
78589;SDS011;67888;50.228;7.828;2023-08-12T13:21:19;5.10;;;2.53;;
78589;SDS011;67888;50.228;7.828;2023-08-12T13:26:19;5.37;;;2.80;;
78589;SDS011;67888;50.228;7.828;2023-08-12T13:31:20;7.20;;;2.67;;
78589;SDS011;67888;50.228;7.828;2023-08-12T13:36:21;5.67;;;2.67;;
78589;SDS011;67888;50.228;7.828;2023-08-12T13:41:21;6.17;;;2.50;;
78589;SDS011;67888;50.228;7.828;2023-08-12T13:46:23;5.60;;;2.45;;
78589;SDS011;67888;50.228;7.828;2023-08-12T13:51:23;6.57;;;2.60;;
78589;SDS011;67888;50.228;7.828;2023-08-12T13:56:24;6.33;;;2.90;;
78589;SDS011;67888;50.228;7.828;2023-08-12T14:01:25;5.43;;;2.40;;
78589;SDS011;67888;50.228;7.828;2023-08-12T14:06:25;7.90;;;2.70;;
78589;SDS011;67888;50.228;7.828;2023-08-12T14:11:26;6.30;;;2.30;;
78589;SDS011;67888;50.228;7.828;2023-08-12T14:16:26;5.45;;;2.45;;
78589;SDS011;67888;50.228;7.828;2023-08-12T14:21:27;5.53;;;2.67;;
78589;SDS011;67888;50.228;7.828;2023-08-12T14:26:27;5.03;;;2.30;;
78589;SDS011;67888;50.228;7.828;2023-08-12T14:31:28;4.83;;;2.30;;
78589;SDS011;67888;50.228;7.828;2023-08-12T14:36:30;5.78;;;2.00;;
78589;SDS011;67888;50.228;7.828;2023-08-12T14:41:31;5.40;;;2.10;;
78589;SDS011;67888;50.228;7.828;2023-08-12T14:46:32;5.83;;;2.13;;
78589;SDS011;67888;50.228;7.828;2023-08-12T14:51:32;7.05;;;2.35;;
78589;SDS011;67888;50.228;7.828;2023-08-12T14:56:33;5.67;;;2.00;;
78589;SDS011;67888;50.228;7.828;2023-08-12T15:01:33;6.37;;;1.97;;
78589;SDS011;67888;50.228;7.828;2023-08-12T15:06:34;5.30;;;2.83;;
78589;SDS011;67888;50.228;7.828;2023-08-12T15:11:34;6.60;;;4.07;;
78589;SDS011;67888;50.228;7.828;2023-08-12T15:16:34;6.93;;;3.37;;
78589;SDS011;67888;50.228;7.828;2023-08-12T15:21:35;6.93;;;2.60;;
78589;SDS011;67888;50.228;7.828;2023-08-12T15:26:35;5.43;;;2.10;;
78589;SDS011;67888;50.228;7.828;2023-08-12T15:31:36;6.73;;;2.50;;
78589;SDS011;67888;50.228;7.828;2023-08-12T15:36:36;6.35;;;2.83;;
78589;SDS011;67888;50.228;7.828;2023-08-12T15:41:40;6.03;;;3.10;;
78589;SDS011;67888;50.228;7.828;2023-08-12T15:46:41;5.33;;;2.33;;
78589;SDS011;67888;50.228;7.828;2023-08-12T15:51:41;4.40;;;1.90;;
78589;SDS011;67888;50.228;7.828;2023-08-12T15:56:42;7.17;;;2.07;;
78589;SDS011;67888;50.228;7.828;2023-08-12T16:01:43;4.07;;;2.03;;
78589;SDS011;67888;50.228;7.828;2023-08-12T16:06:43;5.20;;;2.40;;
78589;SDS011;67888;50.228;7.828;2023-08-12T16:11:43;5.40;;;2.50;;
78589;SDS011;67888;50.228;7.828;2023-08-12T16:16:44;5.20;;;2.50;;
78589;SDS011;67888;50.228;7.828;2023-08-12T16:21:44;5.23;;;2.47;;
78589;SDS011;67888;50.228;7.828;2023-08-12T16:26:44;4.57;;;2.30;;
78589;SDS011;67888;50.228;7.828;2023-08-12T16:31:45;4.03;;;2.10;;
78589;SDS011;67888;50.228;7.828;2023-08-12T16:36:45;4.17;;;2.27;;
78589;SDS011;67888;50.228;7.828;2023-08-12T16:41:46;3.17;;;2.00;;
78589;SDS011;67888;50.228;7.828;2023-08-12T16:46:46;3.73;;;1.83;;
78589;SDS011;67888;50.228;7.828;2023-08-12T16:51:46;4.40;;;1.90;;
78589;SDS011;67888;50.228;7.828;2023-08-12T16:56:47;3.70;;;1.50;;
78589;SDS011;67888;50.228;7.828;2023-08-12T17:01:47;4.43;;;1.73;;
78589;SDS011;67888;50.228;7.828;2023-08-12T17:06:48;3.80;;;2.20;;
78589;SDS011;67888;50.228;7.828;2023-08-12T17:11:48;4.30;;;1.70;;
78589;SDS011;67888;50.228;7.828;2023-08-12T17:16:48;4.17;;;1.50;;
78589;SDS011;67888;50.228;7.828;2023-08-12T17:21:49;2.93;;;1.57;;
78589;SDS011;67888;50.228;7.828;2023-08-12T17:26:49;3.90;;;1.80;;
78589;SDS011;67888;50.228;7.828;2023-08-12T17:31:49;4.17;;;1.60;;
78589;SDS011;67888;50.228;7.828;2023-08-12T17:36:50;2.97;;;1.33;;
78589;SDS011;67888;50.228;7.828;2023-08-12T17:41:50;3.03;;;1.60;;
78589;SDS011;67888;50.228;7.828;2023-08-12T17:46:50;4.37;;;1.90;;
78589;SDS011;67888;50.228;7.828;2023-08-12T17:51:51;3.70;;;1.70;;
78589;SDS011;67888;50.228;7.828;2023-08-12T17:56:51;3.22;;;1.60;;
78589;SDS011;67888;50.228;7.828;2023-08-12T18:01:51;4.70;;;1.87;;
78589;SDS011;67888;50.228;7.828;2023-08-12T18:06:52;3.93;;;1.90;;
78589;SDS011;67888;50.228;7.828;2023-08-12T18:11:52;3.77;;;1.80;;
78589;SDS011;67888;50.228;7.828;2023-08-12T18:16:52;4.47;;;1.80;;
78589;SDS011;67888;50.228;7.828;2023-08-12T18:21:53;4.10;;;1.60;;
78589;SDS011;67888;50.228;7.828;2023-08-12T18:26:53;3.90;;;1.70;;
78589;SDS011;67888;50.228;7.828;2023-08-12T18:31:53;3.50;;;1.47;;
78589;SDS011;67888;50.228;7.828;2023-08-12T18:36:54;5.03;;;1.80;;
78589;SDS011;67888;50.228;7.828;2023-08-12T18:41:54;4.10;;;1.63;;
78589;SDS011;67888;50.228;7.828;2023-08-12T18:46:55;5.53;;;1.90;;
78589;SDS011;67888;50.228;7.828;2023-08-12T18:51:55;5.23;;;1.70;;
78589;SDS011;67888;50.228;7.828;2023-08-12T18:56:55;4.63;;;1.70;;
78589;SDS011;67888;50.228;7.828;2023-08-12T19:01:56;4.23;;;2.00;;
78589;SDS011;67888;50.228;7.828;2023-08-12T19:06:57;4.15;;;1.70;;
78589;SDS011;67888;50.228;7.828;2023-08-12T19:11:57;4.90;;;1.60;;
78589;SDS011;67888;50.228;7.828;2023-08-12T19:16:58;4.20;;;1.73;;
78589;SDS011;67888;50.228;7.828;2023-08-12T19:21:58;3.87;;;1.80;;
78589;SDS011;67888;50.228;7.828;2023-08-12T19:26:58;4.27;;;1.80;;
78589;SDS011;67888;50.228;7.828;2023-08-12T19:31:59;5.07;;;2.00;;
78589;SDS011;67888;50.228;7.828;2023-08-12T19:37:00;5.20;;;2.17;;
78589;SDS011;67888;50.228;7.828;2023-08-12T19:42:00;5.25;;;2.00;;
78589;SDS011;67888;50.228;7.828;2023-08-12T19:47:00;4.57;;;2.00;;
78589;SDS011;67888;50.228;7.828;2023-08-12T19:52:01;4.75;;;1.80;;
78589;SDS011;67888;50.228;7.828;2023-08-12T19:57:01;4.83;;;2.10;;
78589;SDS011;67888;50.228;7.828;2023-08-12T20:02:01;4.50;;;1.90;;
78589;SDS011;67888;50.228;7.828;2023-08-12T20:07:02;4.00;;;2.00;;
78589;SDS011;67888;50.228;7.828;2023-08-12T20:12:02;4.70;;;1.60;;
78589;SDS011;67888;50.228;7.828;2023-08-12T20:17:02;7.03;;;1.80;;
78589;SDS011;67888;50.228;7.828;2023-08-12T20:22:03;8.20;;;2.47;;
78589;SDS011;67888;50.228;7.828;2023-08-12T20:27:03;4.20;;;1.80;;
78589;SDS011;67888;50.228;7.828;2023-08-12T20:32:03;4.80;;;2.00;;
78589;SDS011;67888;50.228;7.828;2023-08-12T20:37:04;4.17;;;1.87;;
78589;SDS011;67888;50.228;7.828;2023-08-12T20:42:04;5.57;;;1.80;;
78589;SDS011;67888;50.228;7.828;2023-08-12T20:47:05;4.77;;;1.90;;
78589;SDS011;67888;50.228;7.828;2023-08-12T20:52:05;7.20;;;2.20;;
78589;SDS011;67888;50.228;7.828;2023-08-12T20:57:06;8.05;;;2.10;;
78589;SDS011;67888;50.228;7.828;2023-08-12T21:02:06;6.83;;;2.27;;
78589;SDS011;67888;50.228;7.828;2023-08-12T21:07:07;6.43;;;2.17;;
78589;SDS011;67888;50.228;7.828;2023-08-12T21:12:07;7.53;;;2.60;;
78589;SDS011;67888;50.228;7.828;2023-08-12T21:17:08;6.57;;;2.30;;
78589;SDS011;67888;50.228;7.828;2023-08-12T21:22:08;6.17;;;2.50;;
78589;SDS011;67888;50.228;7.828;2023-08-12T21:27:09;5.30;;;2.40;;
78589;SDS011;67888;50.228;7.828;2023-08-12T21:32:12;5.40;;;2.20;;
78589;SDS011;67888;50.228;7.828;2023-08-12T21:37:14;5.03;;;2.10;;
78589;SDS011;67888;50.228;7.828;2023-08-12T21:42:14;5.38;;;2.25;;
78589;SDS011;67888;50.228;7.828;2023-08-12T21:47:14;7.03;;;2.50;;
78589;SDS011;67888;50.228;7.828;2023-08-12T21:52:15;6.10;;;2.70;;
78589;SDS011;67888;50.228;7.828;2023-08-12T21:57:15;7.70;;;2.87;;
78589;SDS011;67888;50.228;7.828;2023-08-12T22:02:22;8.27;;;2.90;;
78589;SDS011;67888;50.228;7.828;2023-08-12T22:07:23;7.40;;;2.50;;
78589;SDS011;67888;50.228;7.828;2023-08-12T22:12:23;6.30;;;2.33;;
78589;SDS011;67888;50.228;7.828;2023-08-12T22:17:24;6.87;;;2.80;;
78589;SDS011;67888;50.228;7.828;2023-08-12T22:22:24;6.27;;;2.67;;
78589;SDS011;67888;50.228;7.828;2023-08-12T22:27:25;6.10;;;2.80;;
78589;SDS011;67888;50.228;7.828;2023-08-12T22:32:26;5.95;;;2.50;;
78589;SDS011;67888;50.228;7.828;2023-08-12T22:37:26;8.77;;;2.50;;
78589;SDS011;67888;50.228;7.828;2023-08-12T22:42:26;7.63;;;2.40;;
78589;SDS011;67888;50.228;7.828;2023-08-12T22:47:27;6.10;;;2.33;;
78589;SDS011;67888;50.228;7.828;2023-08-12T22:52:27;6.60;;;2.60;;
78589;SDS011;67888;50.228;7.828;2023-08-12T22:57:28;5.20;;;2.40;;
78589;SDS011;67888;50.228;7.828;2023-08-12T23:02:28;6.00;;;2.30;;
78589;SDS011;67888;50.228;7.828;2023-08-12T23:07:28;8.40;;;2.50;;
78589;SDS011;67888;50.228;7.828;2023-08-12T23:12:28;7.57;;;2.60;;
78589;SDS011;67888;50.228;7.828;2023-08-12T23:17:29;5.37;;;2.40;;
78589;SDS011;67888;50.228;7.828;2023-08-12T23:22:29;7.53;;;2.65;;
78589;SDS011;67888;50.228;7.828;2023-08-12T23:27:30;11.75;;;2.80;;
78589;SDS011;67888;50.228;7.828;2023-08-12T23:32:30;7.63;;;2.77;;
78589;SDS011;67888;50.228;7.828;2023-08-12T23:37:30;7.73;;;2.80;;
78589;SDS011;67888;50.228;7.828;2023-08-12T23:42:31;6.17;;;2.60;;
78589;SDS011;67888;50.228;7.828;2023-08-12T23:47:33;5.33;;;2.10;;
78589;SDS011;67888;50.228;7.828;2023-08-12T23:52:34;8.25;;;2.30;;
78589;SDS011;67888;50.228;7.828;2023-08-12T23:57:34;7.47;;;2.50;;
